Davilla, TX (76523)

11:20 PM CDT on May 26, 2015 (GMT -0500)
BioTech in Thrall, TX | | Change Station
CLOSE
Current Station
Personal Weather Station
Location: Thrall, TX
Elevation: 561 ft
Nearby Weather Stations

Elev 561 ft 30.59 °N, 97.30 °W | Updated 2 minutes ago

Mostly Cloudy
Mostly Cloudy
76.5 °F
Feels Like 77 °F
N
4.2
Wind Variable Wind from SSE

Today
High -- | Low -- °F
--% Chance of Precip.
Yesterday
High -- | Low -- °F
Precip. -- in
6:28 AM 8:23 PM
Waxing Gibbous, 64% visible
Pressure 29.98 in
Visibility 10.0 miles
Clouds Overcast 1500 ft
Heat Index 77 °F
Dew Point 75 °F
Humidity 95%
Rainfall 0.00 in
Snow Depth Not available.
UV 0 out of 12
Pollen 3.80 out of 12
Air Quality Not available.
Flu Activity Sporadic
METAR KT35 270355Z AUTO 15009G16KT 10SM OVC015 25/23 A2998 RMK AO2 LTG DSNT N AND NE T02520232

More Conditions Fewer Conditions

Pressure 29.98 in
Visibility 10.0 miles
Clouds Overcast 1500 ft
Heat Index 77 °F
Dew Point 75 °F
Humidity 95%
Rainfall 0.00 in
Snow Depth Not available.
UV 0 out of 12
Pollen 3.80 out of 12
Air Quality Not available.
Flu Activity Sporadic
METAR KT35 270355Z AUTO 15009G16KT 10SM OVC015 25/23 A2998 RMK AO2 LTG DSNT N AND NE T02520232

More Conditions Fewer Conditions

10-Day Weather Forecast

Almanac

Astronomy

May. 26, 2015 Rise Set
Actual Time
Civil Twilight
Nautical Twilight
Astronomical Twilight
Moon
Length of Visible Light
Length of Day
Tomorrow will be .
, % of the Moon is Illuminated

Today's Extremes

State Highs State Lows

Community

WunderPhotos

Upload Photos

1,824,612 photos uploaded!

WunderBlogs® & News

Nearby

Air Quality

  Air Quality AQ Index Pollutant
Not available.

Snow Depth

Station Depth Elevation

Earthquake Activity

City Distance Mag. Time & Date
Minimum magnitude displayed is 2.5.

Coastal Water Temperatures

Place Temperature

Stations

Nearby Weather Stations

Station Location Temp. Windchill Dew Point Humidity Wind Precip. Elev Updated Type
                   
Flood Warning
Statement as of 9:11 PM CDT on May 26, 2015

The Flood Warning continues for
the Little River at Cameron.
* At 0815 PM Tuesday the stage was 34.23 feet.
* Flood stage is 30 feet.
* Moderate flooding is occurring and moderate flooding is forecast.
* Forecast... the river will continue rising to a crest near 35 feet
by Wednesday morning. The river should fall below flood stage
Thursday morning.


Lat... Lon 3074 9696 3088 9686 3091 9698 3078 9707




911 PM CDT Tue may 26 2015

The Flood Warning continues for
the Little River near Rockdale.
* At 0815 PM Tuesday the stage was 35.38 feet.
* Flood stage is 30 feet.
* Major flooding is occurring and major flooding is forecast.
* Forecast... the river has had a prolonged crest near 35 feet but
should start to recede by Wednesday morning and fall below flood
stage by Thursday after midnight.


Lat... Lon 3075 9715 3071 9703 3074 9696 3083 9707
      3078 9707